Airfield :
LOGIN :

Register | Disclaimer

   EN    FR    IT 

 










Legend :    VFR   Marginal VFR   IFR   Intensive IFR   Very Intensive IFR
Visi :
Ceiling :
>= 8 km
>= 3000ft
5 to 8 km
1000 to 3000 ft
1500m to 5 km
500 to 1000 ft
800 to 1500m
200 to 500 ft
< 800m
< 200 ft
Symbols :   Thunderstorms  Fog  Heavy snow  Heavy precipitations  Wind > 20 kt
SIGMETs :     Misc.  Thunderstorms  Icing  Turbulence  Mountain Waves  Volcanic Ashes






- Airport Elevation : 1066 ft


EGOM - RAF Spadeadam

CURRENT METAR :
  • 021320Z AUTO 08005KT 9999 FEW048/// BKN063/// BKN097/// 06/05 Q1027

EXPIRED METARs :
  • 021250Z AUTO 08005KT 9999 FEW030/// SCT039/// BKN052/// 06/05 Q1027
  • 021220Z AUTO 09006KT 9999 OVC049/// 06/05 Q1027
  • 021150Z AUTO 10006KT 9999 BKN024/// OVC049/// 05/05 Q1027
  • 021120Z AUTO 10008KT 9999 // BKN001/// OVC008/// 05/05 Q1027
  • 021050Z 09007KT 2000 BR OVC001 05/05 Q1027 RMK RED

Expired Forecast.



MET'MAP, your aeronautical weather chart ! - Copyright ORBIFLY December 2007 - Disclaimer

ORBIFLY MET'MAP TEAM :

Programming & Development : Alexandra Zaïnal
Original concept : Baudouin d'Aumeries
Technical & hardware support : Manuel Goepfert
Assistance : Marc-Olivier Méhu




SOURCES & CREDITS :

   NOAA